sensor_id;sensor_type;location;lat;lon;timestamp;P1;durP1;ratioP1;P2;durP2;ratioP2
5153;SDS011;2595;53.584;10.084;2023-02-28T00:00:46;5.27;;;3.00;;
5153;SDS011;2595;53.584;10.084;2023-02-28T00:03:12;3.10;;;2.90;;
5153;SDS011;2595;53.584;10.084;2023-02-28T00:05:38;8.83;;;3.50;;
5153;SDS011;2595;53.584;10.084;2023-02-28T00:08:03;3.40;;;3.20;;
5153;SDS011;2595;53.584;10.084;2023-02-28T00:10:30;3.37;;;3.07;;
5153;SDS011;2595;53.584;10.084;2023-02-28T00:12:59;3.60;;;3.30;;
5153;SDS011;2595;53.584;10.084;2023-02-28T00:15:26;3.43;;;2.90;;
5153;SDS011;2595;53.584;10.084;2023-02-28T00:17:52;3.30;;;3.00;;
5153;SDS011;2595;53.584;10.084;2023-02-28T00:20:18;3.27;;;3.07;;
5153;SDS011;2595;53.584;10.084;2023-02-28T00:22:45;3.37;;;3.10;;
5153;SDS011;2595;53.584;10.084;2023-02-28T00:25:14;4.90;;;3.57;;
5153;SDS011;2595;53.584;10.084;2023-02-28T00:27:42;6.97;;;3.80;;
5153;SDS011;2595;53.584;10.084;2023-02-28T00:30:09;7.13;;;3.23;;
5153;SDS011;2595;53.584;10.084;2023-02-28T00:32:38;3.63;;;3.33;;
5153;SDS011;2595;53.584;10.084;2023-02-28T00:35:04;3.40;;;3.10;;
5153;SDS011;2595;53.584;10.084;2023-02-28T00:37:30;3.83;;;3.47;;
5153;SDS011;2595;53.584;10.084;2023-02-28T00:39:56;2.90;;;2.70;;
5153;SDS011;2595;53.584;10.084;2023-02-28T00:42:22;3.50;;;3.20;;
5153;SDS011;2595;53.584;10.084;2023-02-28T00:44:48;5.60;;;4.00;;
5153;SDS011;2595;53.584;10.084;2023-02-28T00:47:14;4.50;;;3.80;;
5153;SDS011;2595;53.584;10.084;2023-02-28T00:49:40;4.20;;;3.80;;
5153;SDS011;2595;53.584;10.084;2023-02-28T00:52:05;4.47;;;4.07;;
5153;SDS011;2595;53.584;10.084;2023-02-28T00:54:31;5.10;;;3.50;;
5153;SDS011;2595;53.584;10.084;2023-02-28T00:56:57;3.80;;;3.50;;
5153;SDS011;2595;53.584;10.084;2023-02-28T00:59:23;4.97;;;3.00;;
5153;SDS011;2595;53.584;10.084;2023-02-28T01:01:49;6.47;;;3.70;;
5153;SDS011;2595;53.584;10.084;2023-02-28T01:04:14;4.23;;;3.27;;
5153;SDS011;2595;53.584;10.084;2023-02-28T01:06:40;4.50;;;4.10;;
5153;SDS011;2595;53.584;10.084;2023-02-28T01:09:06;5.33;;;3.07;;
5153;SDS011;2595;53.584;10.084;2023-02-28T01:11:33;4.13;;;3.73;;
5153;SDS011;2595;53.584;10.084;2023-02-28T01:13:59;4.23;;;3.10;;
5153;SDS011;2595;53.584;10.084;2023-02-28T01:16:25;4.67;;;3.80;;
5153;SDS011;2595;53.584;10.084;2023-02-28T01:18:51;4.57;;;3.53;;
5153;SDS011;2595;53.584;10.084;2023-02-28T01:21:17;6.07;;;3.73;;
5153;SDS011;2595;53.584;10.084;2023-02-28T01:23:44;5.00;;;3.07;;
5153;SDS011;2595;53.584;10.084;2023-02-28T01:26:12;6.23;;;4.10;;
5153;SDS011;2595;53.584;10.084;2023-02-28T01:28:39;5.90;;;4.23;;
5153;SDS011;2595;53.584;10.084;2023-02-28T01:31:05;4.73;;;3.53;;
5153;SDS011;2595;53.584;10.084;2023-02-28T01:33:31;3.30;;;3.07;;
5153;SDS011;2595;53.584;10.084;2023-02-28T01:36:09;3.17;;;2.90;;
5153;SDS011;2595;53.584;10.084;2023-02-28T01:38:45;6.63;;;3.40;;
5153;SDS011;2595;53.584;10.084;2023-02-28T01:41:30;6.73;;;4.33;;
5153;SDS011;2595;53.584;10.084;2023-02-28T01:43:59;5.23;;;4.37;;
5153;SDS011;2595;53.584;10.084;2023-02-28T01:46:28;4.10;;;3.80;;
5153;SDS011;2595;53.584;10.084;2023-02-28T01:48:56;3.80;;;3.37;;
5153;SDS011;2595;53.584;10.084;2023-02-28T01:51:31;5.87;;;3.77;;
5153;SDS011;2595;53.584;10.084;2023-02-28T01:54:20;6.03;;;4.10;;
5153;SDS011;2595;53.584;10.084;2023-02-28T01:56:51;2.93;;;2.73;;
5153;SDS011;2595;53.584;10.084;2023-02-28T01:59:23;3.87;;;3.37;;
5153;SDS011;2595;53.584;10.084;2023-02-28T02:01:59;3.80;;;3.50;;
5153;SDS011;2595;53.584;10.084;2023-02-28T02:04:27;4.33;;;3.60;;
5153;SDS011;2595;53.584;10.084;2023-02-28T02:06:59;4.07;;;3.70;;
5153;SDS011;2595;53.584;10.084;2023-02-28T02:09:25;4.20;;;3.90;;
5153;SDS011;2595;53.584;10.084;2023-02-28T02:11:50;3.73;;;3.43;;
5153;SDS011;2595;53.584;10.084;2023-02-28T02:17:18;5.50;;;4.50;;
5153;SDS011;2595;53.584;10.084;2023-02-28T02:25:49;5.17;;;4.77;;
5153;SDS011;2595;53.584;10.084;2023-02-28T02:34:29;3.43;;;3.13;;
5153;SDS011;2595;53.584;10.084;2023-02-28T02:37:15;13.63;;;4.40;;
5153;SDS011;2595;53.584;10.084;2023-02-28T02:39:48;4.27;;;3.97;;
5153;SDS011;2595;53.584;10.084;2023-02-28T02:42:28;4.00;;;3.50;;
5153;SDS011;2595;53.584;10.084;2023-02-28T02:45:02;4.00;;;3.60;;
5153;SDS011;2595;53.584;10.084;2023-02-28T02:47:31;5.90;;;5.30;;
5153;SDS011;2595;53.584;10.084;2023-02-28T02:49:59;4.90;;;4.43;;
5153;SDS011;2595;53.584;10.084;2023-02-28T02:52:32;4.97;;;4.67;;
5153;SDS011;2595;53.584;10.084;2023-02-28T02:55:05;4.00;;;3.70;;
5153;SDS011;2595;53.584;10.084;2023-02-28T02:57:37;5.40;;;4.13;;
5153;SDS011;2595;53.584;10.084;2023-02-28T03:00:17;4.60;;;4.20;;
5153;SDS011;2595;53.584;10.084;2023-02-28T03:02:47;4.23;;;3.90;;
5153;SDS011;2595;53.584;10.084;2023-02-28T03:05:21;5.50;;;4.10;;
5153;SDS011;2595;53.584;10.084;2023-02-28T03:07:50;6.17;;;3.80;;
5153;SDS011;2595;53.584;10.084;2023-02-28T03:21:40;5.20;;;4.80;;
5153;SDS011;2595;53.584;10.084;2023-02-28T03:24:27;3.80;;;3.20;;
5153;SDS011;2595;53.584;10.084;2023-02-28T03:26:58;4.07;;;3.77;;
5153;SDS011;2595;53.584;10.084;2023-02-28T03:29:33;4.83;;;4.53;;
5153;SDS011;2595;53.584;10.084;2023-02-28T03:32:06;4.60;;;4.30;;
5153;SDS011;2595;53.584;10.084;2023-02-28T03:34:44;5.97;;;4.30;;
5153;SDS011;2595;53.584;10.084;2023-02-28T03:37:19;3.93;;;3.63;;
5153;SDS011;2595;53.584;10.084;2023-02-28T03:39:49;3.90;;;3.60;;
5153;SDS011;2595;53.584;10.084;2023-02-28T03:42:22;3.63;;;3.33;;
5153;SDS011;2595;53.584;10.084;2023-02-28T03:44:55;4.83;;;4.53;;
5153;SDS011;2595;53.584;10.084;2023-02-28T03:47:25;3.83;;;3.63;;
5153;SDS011;2595;53.584;10.084;2023-02-28T03:50:01;4.20;;;3.90;;
5153;SDS011;2595;53.584;10.084;2023-02-28T03:52:33;5.23;;;4.03;;
5153;SDS011;2595;53.584;10.084;2023-02-28T03:55:02;4.40;;;4.00;;
5153;SDS011;2595;53.584;10.084;2023-02-28T04:00:19;4.23;;;3.83;;
5153;SDS011;2595;53.584;10.084;2023-02-28T04:02:48;3.97;;;3.67;;
5153;SDS011;2595;53.584;10.084;2023-02-28T04:05:17;5.80;;;4.50;;
5153;SDS011;2595;53.584;10.084;2023-02-28T04:07:47;4.23;;;3.93;;
5153;SDS011;2595;53.584;10.084;2023-02-28T04:10:13;4.57;;;4.23;;
5153;SDS011;2595;53.584;10.084;2023-02-28T04:12:40;4.63;;;4.23;;
5153;SDS011;2595;53.584;10.084;2023-02-28T04:15:06;6.60;;;4.73;;
5153;SDS011;2595;53.584;10.084;2023-02-28T04:17:32;4.50;;;4.10;;
5153;SDS011;2595;53.584;10.084;2023-02-28T04:19:58;5.40;;;4.90;;
5153;SDS011;2595;53.584;10.084;2023-02-28T04:22:23;8.33;;;4.27;;
5153;SDS011;2595;53.584;10.084;2023-02-28T04:24:52;4.40;;;4.10;;
5153;SDS011;2595;53.584;10.084;2023-02-28T04:27:19;5.20;;;4.80;;
5153;SDS011;2595;53.584;10.084;2023-02-28T04:30:03;8.30;;;3.90;;
5153;SDS011;2595;53.584;10.084;2023-02-28T04:32:28;4.43;;;4.10;;
5153;SDS011;2595;53.584;10.084;2023-02-28T04:34:54;5.20;;;4.07;;
5153;SDS011;2595;53.584;10.084;2023-02-28T04:37:20;4.30;;;4.00;;
5153;SDS011;2595;53.584;10.084;2023-02-28T04:39:45;5.47;;;4.83;;
5153;SDS011;2595;53.584;10.084;2023-02-28T04:42:11;5.23;;;4.40;;
5153;SDS011;2595;53.584;10.084;2023-02-28T04:44:38;5.37;;;4.77;;
5153;SDS011;2595;53.584;10.084;2023-02-28T04:47:03;4.77;;;4.43;;
5153;SDS011;2595;53.584;10.084;2023-02-28T04:49:29;7.37;;;4.80;;
5153;SDS011;2595;53.584;10.084;2023-02-28T04:51:55;4.77;;;4.33;;
5153;SDS011;2595;53.584;10.084;2023-02-28T04:54:20;7.40;;;4.90;;
5153;SDS011;2595;53.584;10.084;2023-02-28T04:56:46;5.00;;;4.60;;
5153;SDS011;2595;53.584;10.084;2023-02-28T04:59:14;5.27;;;4.93;;
5153;SDS011;2595;53.584;10.084;2023-02-28T05:01:40;5.33;;;5.03;;
5153;SDS011;2595;53.584;10.084;2023-02-28T05:04:05;4.90;;;4.50;;
5153;SDS011;2595;53.584;10.084;2023-02-28T05:06:32;5.20;;;4.77;;
5153;SDS011;2595;53.584;10.084;2023-02-28T05:08:58;5.73;;;4.70;;
5153;SDS011;2595;53.584;10.084;2023-02-28T05:11:28;4.97;;;4.37;;
5153;SDS011;2595;53.584;10.084;2023-02-28T05:13:59;5.90;;;5.27;;
5153;SDS011;2595;53.584;10.084;2023-02-28T05:16:26;6.07;;;4.87;;
5153;SDS011;2595;53.584;10.084;2023-02-28T05:18:52;6.40;;;4.03;;
5153;SDS011;2595;53.584;10.084;2023-02-28T05:21:23;3.80;;;3.60;;
5153;SDS011;2595;53.584;10.084;2023-02-28T05:23:51;4.20;;;3.90;;
5153;SDS011;2595;53.584;10.084;2023-02-28T05:26:17;5.67;;;4.67;;
5153;SDS011;2595;53.584;10.084;2023-02-28T05:28:43;4.67;;;4.00;;
5153;SDS011;2595;53.584;10.084;2023-02-28T05:31:11;5.27;;;4.77;;
5153;SDS011;2595;53.584;10.084;2023-02-28T05:33:37;5.97;;;5.57;;
5153;SDS011;2595;53.584;10.084;2023-02-28T05:36:03;5.50;;;5.20;;
5153;SDS011;2595;53.584;10.084;2023-02-28T05:38:29;5.20;;;4.80;;
5153;SDS011;2595;53.584;10.084;2023-02-28T05:40:56;3.60;;;3.40;;
5153;SDS011;2595;53.584;10.084;2023-02-28T05:43:24;5.70;;;5.20;;
5153;SDS011;2595;53.584;10.084;2023-02-28T05:45:51;6.10;;;5.60;;
5153;SDS011;2595;53.584;10.084;2023-02-28T05:48:17;5.17;;;4.73;;
5153;SDS011;2595;53.584;10.084;2023-02-28T05:50:43;5.20;;;4.83;;
5153;SDS011;2595;53.584;10.084;2023-02-28T05:53:11;5.50;;;4.60;;
5153;SDS011;2595;53.584;10.084;2023-02-28T05:55:36;6.10;;;4.33;;
5153;SDS011;2595;53.584;10.084;2023-02-28T05:58:02;8.43;;;5.87;;
5153;SDS011;2595;53.584;10.084;2023-02-28T06:00:28;7.57;;;4.90;;
5153;SDS011;2595;53.584;10.084;2023-02-28T06:02:54;8.60;;;5.37;;
5153;SDS011;2595;53.584;10.084;2023-02-28T06:05:23;4.80;;;4.37;;
5153;SDS011;2595;53.584;10.084;2023-02-28T06:07:49;7.00;;;5.37;;
5153;SDS011;2595;53.584;10.084;2023-02-28T06:10:15;5.13;;;4.77;;
5153;SDS011;2595;53.584;10.084;2023-02-28T06:12:40;7.23;;;5.10;;
5153;SDS011;2595;53.584;10.084;2023-02-28T06:15:07;6.63;;;5.90;;
5153;SDS011;2595;53.584;10.084;2023-02-28T06:17:36;6.10;;;5.63;;
5153;SDS011;2595;53.584;10.084;2023-02-28T06:20:02;6.63;;;6.00;;
5153;SDS011;2595;53.584;10.084;2023-02-28T06:22:28;6.40;;;5.90;;
5153;SDS011;2595;53.584;10.084;2023-02-28T06:24:54;7.70;;;5.67;;
5153;SDS011;2595;53.584;10.084;2023-02-28T06:27:19;10.23;;;5.47;;
5153;SDS011;2595;53.584;10.084;2023-02-28T06:29:45;7.47;;;5.57;;
5153;SDS011;2595;53.584;10.084;2023-02-28T06:32:11;6.57;;;5.20;;
5153;SDS011;2595;53.584;10.084;2023-02-28T06:34:36;6.20;;;5.70;;
5153;SDS011;2595;53.584;10.084;2023-02-28T06:37:02;7.43;;;5.77;;
5153;SDS011;2595;53.584;10.084;2023-02-28T06:39:28;6.60;;;4.40;;
5153;SDS011;2595;53.584;10.084;2023-02-28T06:41:54;4.83;;;4.50;;
5153;SDS011;2595;53.584;10.084;2023-02-28T06:44:20;5.07;;;4.63;;
5153;SDS011;2595;53.584;10.084;2023-02-28T06:46:47;10.53;;;6.23;;
5153;SDS011;2595;53.584;10.084;2023-02-28T06:49:13;5.47;;;5.07;;
5153;SDS011;2595;53.584;10.084;2023-02-28T06:51:40;5.70;;;5.20;;
5153;SDS011;2595;53.584;10.084;2023-02-28T06:54:09;5.63;;;5.13;;
5153;SDS011;2595;53.584;10.084;2023-02-28T06:56:36;8.07;;;5.37;;
5153;SDS011;2595;53.584;10.084;2023-02-28T06:59:01;5.77;;;5.43;;
5153;SDS011;2595;53.584;10.084;2023-02-28T07:01:28;15.57;;;6.80;;
5153;SDS011;2595;53.584;10.084;2023-02-28T07:03:54;5.80;;;5.30;;
5153;SDS011;2595;53.584;10.084;2023-02-28T07:06:20;5.77;;;5.27;;
5153;SDS011;2595;53.584;10.084;2023-02-28T07:08:50;6.03;;;5.63;;
5153;SDS011;2595;53.584;10.084;2023-02-28T07:11:20;5.57;;;5.07;;
5153;SDS011;2595;53.584;10.084;2023-02-28T07:13:47;11.60;;;8.17;;
5153;SDS011;2595;53.584;10.084;2023-02-28T07:16:14;8.97;;;8.03;;
5153;SDS011;2595;53.584;10.084;2023-02-28T07:18:39;8.33;;;7.53;;
5153;SDS011;2595;53.584;10.084;2023-02-28T07:21:06;7.90;;;7.20;;
5153;SDS011;2595;53.584;10.084;2023-02-28T07:23:34;7.63;;;6.83;;
5153;SDS011;2595;53.584;10.084;2023-02-28T07:26:01;7.23;;;6.70;;
5153;SDS011;2595;53.584;10.084;2023-02-28T07:28:27;7.20;;;6.50;;
5153;SDS011;2595;53.584;10.084;2023-02-28T07:30:53;5.50;;;5.00;;
5153;SDS011;2595;53.584;10.084;2023-02-28T07:33:18;6.50;;;6.07;;
5153;SDS011;2595;53.584;10.084;2023-02-28T07:35:44;7.27;;;6.77;;
5153;SDS011;2595;53.584;10.084;2023-02-28T07:38:09;6.10;;;5.30;;
5153;SDS011;2595;53.584;10.084;2023-02-28T07:40:35;5.93;;;5.43;;
5153;SDS011;2595;53.584;10.084;2023-02-28T07:43:01;11.77;;;6.53;;
5153;SDS011;2595;53.584;10.084;2023-02-28T07:45:28;6.10;;;5.60;;
5153;SDS011;2595;53.584;10.084;2023-02-28T07:47:54;7.23;;;6.30;;
5153;SDS011;2595;53.584;10.084;2023-02-28T07:50:20;10.20;;;6.83;;
5153;SDS011;2595;53.584;10.084;2023-02-28T07:52:46;10.00;;;5.63;;
5153;SDS011;2595;53.584;10.084;2023-02-28T07:55:12;6.57;;;6.17;;
5153;SDS011;2595;53.584;10.084;2023-02-28T07:57:38;8.83;;;5.70;;
5153;SDS011;2595;53.584;10.084;2023-02-28T08:00:05;6.70;;;5.27;;
5153;SDS011;2595;53.584;10.084;2023-02-28T08:02:34;5.37;;;4.87;;
5153;SDS011;2595;53.584;10.084;2023-02-28T08:05:00;6.63;;;6.13;;
5153;SDS011;2595;53.584;10.084;2023-02-28T08:07:26;7.10;;;6.43;;
5153;SDS011;2595;53.584;10.084;2023-02-28T08:09:52;5.70;;;5.30;;
5153;SDS011;2595;53.584;10.084;2023-02-28T08:12:17;6.07;;;5.57;;
5153;SDS011;2595;53.584;10.084;2023-02-28T08:14:43;8.00;;;6.20;;
5153;SDS011;2595;53.584;10.084;2023-02-28T08:17:09;10.60;;;5.87;;
5153;SDS011;2595;53.584;10.084;2023-02-28T08:19:35;5.70;;;5.30;;
5153;SDS011;2595;53.584;10.084;2023-02-28T08:22:01;7.07;;;6.60;;
5153;SDS011;2595;53.584;10.084;2023-02-28T08:24:27;6.73;;;5.97;;
5153;SDS011;2595;53.584;10.084;2023-02-28T08:26:52;8.60;;;5.70;;
5153;SDS011;2595;53.584;10.084;2023-02-28T08:29:18;6.93;;;5.43;;
5153;SDS011;2595;53.584;10.084;2023-02-28T08:31:43;7.80;;;5.80;;
5153;SDS011;2595;53.584;10.084;2023-02-28T08:34:10;6.60;;;5.50;;
5153;SDS011;2595;53.584;10.084;2023-02-28T08:36:37;6.57;;;6.07;;
5153;SDS011;2595;53.584;10.084;2023-02-28T08:39:03;5.80;;;5.40;;
5153;SDS011;2595;53.584;10.084;2023-02-28T08:41:29;5.50;;;4.97;;
5153;SDS011;2595;53.584;10.084;2023-02-28T08:43:55;9.80;;;6.23;;
5153;SDS011;2595;53.584;10.084;2023-02-28T08:46:21;6.47;;;5.90;;
5153;SDS011;2595;53.584;10.084;2023-02-28T08:48:51;5.80;;;5.40;;
5153;SDS011;2595;53.584;10.084;2023-02-28T08:51:18;6.23;;;5.53;;
5153;SDS011;2595;53.584;10.084;2023-02-28T08:53:47;6.17;;;5.77;;
5153;SDS011;2595;53.584;10.084;2023-02-28T08:56:14;7.87;;;6.33;;
5153;SDS011;2595;53.584;10.084;2023-02-28T08:58:42;8.77;;;5.33;;
5153;SDS011;2595;53.584;10.084;2023-02-28T09:01:10;6.03;;;5.50;;
5153;SDS011;2595;53.584;10.084;2023-02-28T09:03:40;6.93;;;5.27;;
5153;SDS011;2595;53.584;10.084;2023-02-28T09:06:07;9.40;;;5.50;;
5153;SDS011;2595;53.584;10.084;2023-02-28T09:08:33;7.27;;;5.40;;
5153;SDS011;2595;53.584;10.084;2023-02-28T09:10:59;9.10;;;5.80;;
5153;SDS011;2595;53.584;10.084;2023-02-28T09:13:26;5.57;;;5.07;;
5153;SDS011;2595;53.584;10.084;2023-02-28T09:15:53;5.53;;;5.13;;
5153;SDS011;2595;53.584;10.084;2023-02-28T09:18:19;6.73;;;5.63;;
5153;SDS011;2595;53.584;10.084;2023-02-28T09:20:45;5.83;;;5.33;;
5153;SDS011;2595;53.584;10.084;2023-02-28T09:23:11;7.53;;;6.67;;
5153;SDS011;2595;53.584;10.084;2023-02-28T09:25:38;5.53;;;4.83;;
5153;SDS011;2595;53.584;10.084;2023-02-28T09:28:19;4.83;;;4.37;;
5153;SDS011;2595;53.584;10.084;2023-02-28T09:30:46;5.10;;;4.70;;
5153;SDS011;2595;53.584;10.084;2023-02-28T09:33:14;5.50;;;5.03;;
5153;SDS011;2595;53.584;10.084;2023-02-28T09:35:40;4.77;;;4.33;;
5153;SDS011;2595;53.584;10.084;2023-02-28T09:38:05;7.00;;;4.07;;
5153;SDS011;2595;53.584;10.084;2023-02-28T09:40:34;4.50;;;4.20;;
5153;SDS011;2595;53.584;10.084;2023-02-28T09:43:02;4.37;;;3.83;;
5153;SDS011;2595;53.584;10.084;2023-02-28T09:48:10;3.70;;;3.40;;
5153;SDS011;2595;53.584;10.084;2023-02-28T09:50:42;4.27;;;3.90;;
5153;SDS011;2595;53.584;10.084;2023-02-28T09:55:59;5.60;;;3.80;;
5153;SDS011;2595;53.584;10.084;2023-02-28T10:04:32;2.90;;;2.70;;
5153;SDS011;2595;53.584;10.084;2023-02-28T10:07:22;3.57;;;3.27;;
5153;SDS011;2595;53.584;10.084;2023-02-28T10:09:50;3.30;;;3.10;;
5153;SDS011;2595;53.584;10.084;2023-02-28T10:12:19;3.97;;;3.67;;
5153;SDS011;2595;53.584;10.084;2023-02-28T10:14:46;5.70;;;4.70;;
5153;SDS011;2595;53.584;10.084;2023-02-28T10:17:15;4.17;;;3.83;;
5153;SDS011;2595;53.584;10.084;2023-02-28T10:25:50;3.77;;;3.57;;
5153;SDS011;2595;53.584;10.084;2023-02-28T10:28:22;4.00;;;3.10;;
5153;SDS011;2595;53.584;10.084;2023-02-28T10:30:51;3.40;;;3.10;;
5153;SDS011;2595;53.584;10.084;2023-02-28T10:35:59;3.40;;;3.20;;
5153;SDS011;2595;53.584;10.084;2023-02-28T10:38:27;2.80;;;2.70;;
5153;SDS011;2595;53.584;10.084;2023-02-28T10:41:14;8.03;;;3.60;;
5153;SDS011;2595;53.584;10.084;2023-02-28T10:46:47;2.70;;;2.40;;
5153;SDS011;2595;53.584;10.084;2023-02-28T10:49:15;3.10;;;2.90;;
5153;SDS011;2595;53.584;10.084;2023-02-28T10:51:54;2.77;;;2.57;;
5153;SDS011;2595;53.584;10.084;2023-02-28T10:54:23;3.10;;;2.93;;
5153;SDS011;2595;53.584;10.084;2023-02-28T10:57:05;5.70;;;2.60;;
5153;SDS011;2595;53.584;10.084;2023-02-28T10:59:42;2.83;;;2.63;;
5153;SDS011;2595;53.584;10.084;2023-02-28T11:02:29;5.17;;;3.20;;
5153;SDS011;2595;53.584;10.084;2023-02-28T11:04:58;3.73;;;2.80;;
5153;SDS011;2595;53.584;10.084;2023-02-28T11:07:25;2.43;;;2.20;;
5153;SDS011;2595;53.584;10.084;2023-02-28T11:09:53;2.80;;;2.60;;
5153;SDS011;2595;53.584;10.084;2023-02-28T11:12:21;7.00;;;2.87;;
5153;SDS011;2595;53.584;10.084;2023-02-28T11:14:54;3.10;;;2.90;;
5153;SDS011;2595;53.584;10.084;2023-02-28T11:17:27;2.87;;;2.67;;
5153;SDS011;2595;53.584;10.084;2023-02-28T11:19:59;4.17;;;2.20;;
5153;SDS011;2595;53.584;10.084;2023-02-28T11:22:29;2.60;;;2.27;;
5153;SDS011;2595;53.584;10.084;2023-02-28T11:24:58;2.20;;;2.10;;
5153;SDS011;2595;53.584;10.084;2023-02-28T11:29:55;6.60;;;2.53;;
5153;SDS011;2595;53.584;10.084;2023-02-28T11:32:23;3.13;;;2.30;;
5153;SDS011;2595;53.584;10.084;2023-02-28T11:37:28;2.73;;;2.53;;
5153;SDS011;2595;53.584;10.084;2023-02-28T11:39:55;2.93;;;2.60;;
5153;SDS011;2595;53.584;10.084;2023-02-28T11:48:02;3.00;;;2.80;;
5153;SDS011;2595;53.584;10.084;2023-02-28T11:50:50;3.50;;;3.30;;
5153;SDS011;2595;53.584;10.084;2023-02-28T11:56:36;3.90;;;2.00;;
5153;SDS011;2595;53.584;10.084;2023-02-28T12:10:04;3.77;;;2.40;;
5153;SDS011;2595;53.584;10.084;2023-02-28T12:15:32;4.23;;;2.63;;
5153;SDS011;2595;53.584;10.084;2023-02-28T12:26:28;2.10;;;1.90;;
5153;SDS011;2595;53.584;10.084;2023-02-28T12:29:19;2.50;;;2.13;;
5153;SDS011;2595;53.584;10.084;2023-02-28T12:31:52;2.90;;;2.07;;
5153;SDS011;2595;53.584;10.084;2023-02-28T12:34:38;3.30;;;2.83;;
5153;SDS011;2595;53.584;10.084;2023-02-28T12:37:15;2.77;;;2.67;;
5153;SDS011;2595;53.584;10.084;2023-02-28T12:39:49;3.17;;;2.47;;
5153;SDS011;2595;53.584;10.084;2023-02-28T12:42:24;4.50;;;2.70;;
5153;SDS011;2595;53.584;10.084;2023-02-28T12:48:02;3.60;;;2.67;;
5153;SDS011;2595;53.584;10.084;2023-02-28T12:50:32;14.40;;;2.80;;
5153;SDS011;2595;53.584;10.084;2023-02-28T12:53:03;3.83;;;2.20;;
5153;SDS011;2595;53.584;10.084;2023-02-28T12:55:41;2.63;;;2.43;;
5153;SDS011;2595;53.584;10.084;2023-02-28T13:09:35;10.97;;;2.40;;
5153;SDS011;2595;53.584;10.084;2023-02-28T13:12:01;3.13;;;2.20;;
5153;SDS011;2595;53.584;10.084;2023-02-28T13:14:41;1.77;;;1.67;;
5153;SDS011;2595;53.584;10.084;2023-02-28T13:19:32;4.67;;;1.90;;
5153;SDS011;2595;53.584;10.084;2023-02-28T13:22:00;2.13;;;2.03;;
5153;SDS011;2595;53.584;10.084;2023-02-28T13:24:46;3.37;;;2.57;;
5153;SDS011;2595;53.584;10.084;2023-02-28T13:29:40;2.50;;;2.30;;
5153;SDS011;2595;53.584;10.084;2023-02-28T13:34:35;2.20;;;2.10;;
5153;SDS011;2595;53.584;10.084;2023-02-28T13:39:50;2.70;;;2.50;;
5153;SDS011;2595;53.584;10.084;2023-02-28T13:47:40;1.90;;;1.80;;
5153;SDS011;2595;53.584;10.084;2023-02-28T14:01:31;3.67;;;2.30;;
5153;SDS011;2595;53.584;10.084;2023-02-28T14:06:58;2.20;;;2.10;;
5153;SDS011;2595;53.584;10.084;2023-02-28T14:09:27;1.77;;;1.67;;
5153;SDS011;2595;53.584;10.084;2023-02-28T14:15:23;2.20;;;1.70;;
5153;SDS011;2595;53.584;10.084;2023-02-28T14:17:54;5.37;;;2.57;;
5153;SDS011;2595;53.584;10.084;2023-02-28T14:20:21;4.33;;;2.40;;
5153;SDS011;2595;53.584;10.084;2023-02-28T14:23:00;2.07;;;1.97;;
5153;SDS011;2595;53.584;10.084;2023-02-28T14:31:17;3.00;;;2.10;;
5153;SDS011;2595;53.584;10.084;2023-02-28T14:36:37;4.30;;;1.90;;
5153;SDS011;2595;53.584;10.084;2023-02-28T14:39:06;2.10;;;2.00;;
5153;SDS011;2595;53.584;10.084;2023-02-28T14:41:37;2.50;;;2.30;;
5153;SDS011;2595;53.584;10.084;2023-02-28T14:44:23;2.30;;;2.10;;
5153;SDS011;2595;53.584;10.084;2023-02-28T14:46:52;2.23;;;2.13;;
5153;SDS011;2595;53.584;10.084;2023-02-28T14:49:32;2.30;;;2.10;;
5153;SDS011;2595;53.584;10.084;2023-02-28T14:52:23;2.40;;;1.70;;
5153;SDS011;2595;53.584;10.084;2023-02-28T14:54:58;1.93;;;1.83;;
5153;SDS011;2595;53.584;10.084;2023-02-28T14:59:59;3.80;;;2.63;;
5153;SDS011;2595;53.584;10.084;2023-02-28T15:02:33;3.10;;;2.27;;
5153;SDS011;2595;53.584;10.084;2023-02-28T15:05:01;4.53;;;2.33;;
5153;SDS011;2595;53.584;10.084;2023-02-28T15:07:41;2.00;;;1.90;;
5153;SDS011;2595;53.584;10.084;2023-02-28T15:10:24;2.53;;;2.33;;
5153;SDS011;2595;53.584;10.084;2023-02-28T15:15:40;3.50;;;2.00;;
5153;SDS011;2595;53.584;10.084;2023-02-28T15:19:02;2.10;;;2.00;;
5153;SDS011;2595;53.584;10.084;2023-02-28T15:21:03;2.40;;;2.20;;
5153;SDS011;2595;53.584;10.084;2023-02-28T15:23:32;2.23;;;2.03;;
5153;SDS011;2595;53.584;10.084;2023-02-28T15:26:00;5.10;;;2.20;;
5153;SDS011;2595;53.584;10.084;2023-02-28T15:28:25;2.23;;;1.93;;
5153;SDS011;2595;53.584;10.084;2023-02-28T15:30:54;2.90;;;2.27;;
5153;SDS011;2595;53.584;10.084;2023-02-28T15:33:31;2.23;;;2.07;;
5153;SDS011;2595;53.584;10.084;2023-02-28T15:36:14;2.40;;;2.20;;
5153;SDS011;2595;53.584;10.084;2023-02-28T15:38:45;3.77;;;2.60;;
5153;SDS011;2595;53.584;10.084;2023-02-28T15:41:37;4.50;;;2.10;;
5153;SDS011;2595;53.584;10.084;2023-02-28T15:46:43;4.97;;;2.90;;
5153;SDS011;2595;53.584;10.084;2023-02-28T15:49:21;2.23;;;2.03;;
5153;SDS011;2595;53.584;10.084;2023-02-28T15:51:49;1.83;;;1.73;;
5153;SDS011;2595;53.584;10.084;2023-02-28T15:54:21;2.10;;;2.00;;
5153;SDS011;2595;53.584;10.084;2023-02-28T15:57:06;2.10;;;2.00;;
5153;SDS011;2595;53.584;10.084;2023-02-28T15:59:38;4.13;;;3.80;;
5153;SDS011;2595;53.584;10.084;2023-02-28T16:04:53;3.80;;;3.60;;
5153;SDS011;2595;53.584;10.084;2023-02-28T16:07:38;3.07;;;2.87;;
5153;SDS011;2595;53.584;10.084;2023-02-28T16:10:06;3.20;;;2.30;;
5153;SDS011;2595;53.584;10.084;2023-02-28T16:12:34;2.60;;;2.13;;
5153;SDS011;2595;53.584;10.084;2023-02-28T16:15:05;2.53;;;2.43;;
5153;SDS011;2595;53.584;10.084;2023-02-28T16:17:35;3.00;;;2.67;;
5153;SDS011;2595;53.584;10.084;2023-02-28T16:20:13;3.70;;;3.50;;
5153;SDS011;2595;53.584;10.084;2023-02-28T16:22:40;3.67;;;3.40;;
5153;SDS011;2595;53.584;10.084;2023-02-28T16:25:08;3.50;;;3.20;;
5153;SDS011;2595;53.584;10.084;2023-02-28T16:27:41;4.37;;;4.07;;
5153;SDS011;2595;53.584;10.084;2023-02-28T16:30:14;5.67;;;4.33;;
5153;SDS011;2595;53.584;10.084;2023-02-28T16:32:44;4.17;;;3.97;;
5153;SDS011;2595;53.584;10.084;2023-02-28T16:35:10;4.20;;;2.33;;
5153;SDS011;2595;53.584;10.084;2023-02-28T16:37:36;2.30;;;2.10;;
5153;SDS011;2595;53.584;10.084;2023-02-28T16:40:02;4.77;;;4.40;;
5153;SDS011;2595;53.584;10.084;2023-02-28T16:42:28;4.00;;;3.80;;
5153;SDS011;2595;53.584;10.084;2023-02-28T16:44:55;4.10;;;3.80;;
5153;SDS011;2595;53.584;10.084;2023-02-28T16:47:22;4.07;;;3.67;;
5153;SDS011;2595;53.584;10.084;2023-02-28T16:49:48;2.10;;;2.00;;
5153;SDS011;2595;53.584;10.084;2023-02-28T16:52:14;2.30;;;1.80;;
5153;SDS011;2595;53.584;10.084;2023-02-28T16:54:40;2.60;;;2.40;;
5153;SDS011;2595;53.584;10.084;2023-02-28T16:57:08;3.07;;;2.40;;
5153;SDS011;2595;53.584;10.084;2023-02-28T16:59:43;2.40;;;2.30;;
5153;SDS011;2595;53.584;10.084;2023-02-28T17:02:12;3.10;;;2.90;;
5153;SDS011;2595;53.584;10.084;2023-02-28T17:04:39;4.70;;;2.43;;
5153;SDS011;2595;53.584;10.084;2023-02-28T17:07:08;2.50;;;2.30;;
5153;SDS011;2595;53.584;10.084;2023-02-28T17:09:37;2.17;;;2.07;;
5153;SDS011;2595;53.584;10.084;2023-02-28T17:12:03;2.67;;;2.57;;
5153;SDS011;2595;53.584;10.084;2023-02-28T17:14:28;2.80;;;2.60;;
5153;SDS011;2595;53.584;10.084;2023-02-28T17:16:54;8.03;;;2.90;;
5153;SDS011;2595;53.584;10.084;2023-02-28T17:19:20;2.40;;;2.20;;
5153;SDS011;2595;53.584;10.084;2023-02-28T17:21:45;2.40;;;2.20;;
5153;SDS011;2595;53.584;10.084;2023-02-28T17:24:11;2.67;;;2.47;;
5153;SDS011;2595;53.584;10.084;2023-02-28T17:26:37;3.37;;;2.30;;
5153;SDS011;2595;53.584;10.084;2023-02-28T17:29:05;3.53;;;3.10;;
5153;SDS011;2595;53.584;10.084;2023-02-28T17:31:38;2.57;;;2.37;;
5153;SDS011;2595;53.584;10.084;2023-02-28T17:34:04;2.80;;;2.60;;
5153;SDS011;2595;53.584;10.084;2023-02-28T17:36:29;2.30;;;2.20;;
5153;SDS011;2595;53.584;10.084;2023-02-28T17:38:55;2.57;;;2.37;;
5153;SDS011;2595;53.584;10.084;2023-02-28T17:41:23;3.90;;;3.03;;
5153;SDS011;2595;53.584;10.084;2023-02-28T17:43:49;5.53;;;2.77;;
5153;SDS011;2595;53.584;10.084;2023-02-28T17:46:16;3.20;;;3.00;;
5153;SDS011;2595;53.584;10.084;2023-02-28T17:48:45;4.50;;;3.13;;